Weather History for Cherokee, IA

Change the Weather History Date:

Monday, January 7, 2013

  Actual Average Record
Temperature  
Mean Temperature 25 °F -  
Max Temperature 36 °F 22 °F 49 °F (1963)
Min Temperature 14 °F 0 °F -24 °F (1968)
Degree Days  
Heating Degree Days 40    
Moisture  
Dew Point 21 °F    
Average Humidity 68    
Maximum Humidity 84    
Minimum Humidity 52    
Precipitation  
Precipitation 0.00 in - - ()
Sea Level Pressure  
Sea Level Pressure 29.98 in    
Wind  
Wind Speed 11 mph (SW)    
Max Wind Speed 23 mph    
Max Gust Speed 30 mph    
Visibility 9 miles    
Events      
Averages and records for this station are not official NWS values.
T = Trace of Precipitation, MM = Missing Value Source: NWS Daily Summary

Daily Weather History Graph

Daily Weather History Graph

Search for Another Location

Airport:

Trip Planner

Search our weather history database for the weather conditions in past years. The results will help you decide how hot, cold, wet, or windy it might be!

Date:

Astronomy

Jan. 07, 2013 Rise Set
Actual Time 7:52 AM CST 5:05 PM CST
Civil Twilight 7:20 AM CST 5:36 PM CST
Nautical Twilight 6:45 AM CST 6:12 PM CST
Astronomical Twilight 6:11 AM CST 6:46 PM CST
Moon 3:15 AM CST (1/7) 1:18 PM CST (1/7)
Length of Visible Light 10h 16m
Length of Day
9h 12m
Waning Crescent, 22% of the Moon is Illuminated
Jan 7
Waning Crescent
Jan 11
New
Jan 18
First Quarter
Jan 26
Full
Feb 3
Last Quarter

Hourly Weather History & Observations

Time (CST) Temp. Windchill Dew Point Humidity Pressure Visibility Wind Dir Wind Speed Gust Speed Precip Events Conditions
12:15 AM 27.1 °F 17.5 °F 19.0 °F 72% 30.04 in 10.0 mi South 10.4 mph - N/A   Clear
12:55 AM 28.0 °F 17.5 °F 19.2 °F 70% 30.02 in 10.0 mi South 12.7 mph - N/A   Clear
1:35 AM 28.9 °F 16.9 °F 19.4 °F 68% 29.99 in 10.0 mi South 17.3 mph - N/A   Clear
1:55 AM 28.9 °F 16.1 °F 18.9 °F 66% 29.98 in 10.0 mi South 19.6 mph - N/A   Clear
2:15 AM 28.9 °F 17.3 °F 19.0 °F 67% 29.97 in 10.0 mi South 16.1 mph - N/A   Clear
2:35 AM 32.0 °F 20.8 °F 19.6 °F 60% 29.97 in 10.0 mi South 17.3 mph 25.3 mph N/A   Clear
2:55 AM 33.4 °F 21.7 °F 20.3 °F 59% 29.96 in 10.0 mi South 20.7 mph 28.8 mph N/A   Clear
3:15 AM 34.3 °F 22.3 °F 20.5 °F 57% 29.96 in 10.0 mi SSW 23.0 mph 29.9 mph N/A   Clear
3:35 AM 35.2 °F 24.4 °F 20.7 °F 55% 29.96 in 10.0 mi SSW 19.6 mph 26.5 mph N/A   Clear
3:55 AM 36.3 °F 25.2 °F 20.3 °F 52% 29.95 in 10.0 mi SSW 21.9 mph 28.8 mph N/A   Clear
4:15 AM 34.2 °F 22.6 °F 20.7 °F 58% 29.95 in 10.0 mi SSW 20.7 mph 25.3 mph N/A   Clear
4:35 AM 33.8 °F 23.2 °F 20.7 °F 59% 29.95 in 10.0 mi SSW 17.3 mph - N/A   Clear
4:55 AM 32.5 °F 21.9 °F 20.8 °F 62% 29.94 in 10.0 mi South 16.1 mph - N/A   Clear
5:15 AM 32.9 °F 22.4 °F 20.5 °F 60% 29.92 in 10.0 mi South 16.1 mph - N/A   Clear
5:35 AM 32.4 °F 22.5 °F 20.3 °F 61% 29.92 in 10.0 mi SSW 13.8 mph 19.6 mph N/A   Clear
5:55 AM 32.0 °F 22.5 °F 20.3 °F 62% 29.92 in 10.0 mi SSW 12.7 mph - N/A   Clear
6:35 AM 35.8 °F 26.5 °F 21.4 °F 56% 29.94 in 10.0 mi SW 15.0 mph 21.9 mph N/A   Clear
6:55 AM 35.1 °F 25.9 °F 21.6 °F 58% 29.96 in 10.0 mi SW 13.8 mph - N/A   Clear
7:15 AM 34.7 °F 25.9 °F 21.7 °F 59% 29.96 in 10.0 mi SW 12.7 mph 17.3 mph N/A   Clear
7:35 AM 34.5 °F 24.8 °F 21.7 °F 60% 29.95 in 10.0 mi SW 15.0 mph - N/A   Clear
7:55 AM 33.8 °F 26.4 °F 21.6 °F 61% 29.96 in 10.0 mi SW 9.2 mph - N/A   Clear
8:15 AM 33.6 °F 25.0 °F 21.7 °F 62% 29.97 in 10.0 mi SW 11.5 mph - N/A   Clear
8:35 AM 33.8 °F 23.9 °F 21.9 °F 62% 29.98 in 10.0 mi SW 15.0 mph - N/A   Clear
8:55 AM 33.3 °F 24.1 °F 21.7 °F 63% 29.98 in 10.0 mi SW 12.7 mph - N/A   Clear
9:15 AM 32.9 °F 24.7 °F 21.9 °F 64% 29.98 in 10.0 mi SW 10.4 mph - N/A   Clear
9:35 AM 32.9 °F 24.7 °F 21.9 °F 64% 29.99 in 10.0 mi SW 10.4 mph - N/A   Clear
9:55 AM 33.3 °F 25.1 °F 22.1 °F 64% 30.00 in 10.0 mi SW 10.4 mph - N/A   Clear
10:15 AM 33.8 °F 27.0 °F 21.9 °F 62% 30.00 in 10.0 mi SW 8.1 mph - N/A   Clear
10:35 AM 33.8 °F 25.3 °F 22.1 °F 62% 29.99 in 10.0 mi SSW 11.5 mph - N/A   Clear
10:55 AM 34.2 °F 25.7 °F 22.5 °F 62% 29.99 in 10.0 mi SW 11.5 mph - N/A   Clear
11:15 AM 34.2 °F 26.8 °F 22.8 °F 63% 30.00 in 10.0 mi SW 9.2 mph - N/A   Clear
11:35 AM 34.3 °F 25.9 °F 23.0 °F 63% 29.98 in 10.0 mi SW 11.5 mph - N/A   Clear
11:55 AM 34.7 °F 28.1 °F 23.0 °F 62% 29.99 in 10.0 mi West 8.1 mph - N/A   Clear
12:15 PM 34.9 °F 28.3 °F 23.4 °F 63% 29.97 in 10.0 mi WSW 8.1 mph - N/A   Clear
12:35 PM 34.2 °F 28.2 °F 23.5 °F 65% 29.97 in 10.0 mi WSW 6.9 mph - N/A   Clear
1:15 PM 35.2 °F 29.5 °F 23.5 °F 62% 29.96 in 10.0 mi WSW 6.9 mph - N/A   Clear
1:35 PM 35.2 °F 29.5 °F 23.4 °F 62% 29.96 in 10.0 mi WSW 6.9 mph - N/A   Clear
1:55 PM 35.6 °F 30.7 °F 24.3 °F 63% 29.96 in 10.0 mi WSW 5.8 mph - N/A   Clear
2:15 PM 35.8 °F 29.4 °F 23.9 °F 62% 29.96 in 10.0 mi WSW 8.1 mph - N/A   Clear
2:35 PM 35.6 °F 30.7 °F 24.4 °F 64% 29.97 in 10.0 mi WSW 5.8 mph - N/A   Clear
2:55 PM 35.6 °F 30.7 °F 24.3 °F 63% 29.97 in 10.0 mi WSW 5.8 mph - N/A   Clear
3:15 PM 35.4 °F 30.5 °F 24.3 °F 64% 29.98 in 10.0 mi WSW 5.8 mph - N/A   Clear
3:35 PM 35.2 °F 29.5 °F 24.6 °F 65% 29.99 in 10.0 mi WSW 6.9 mph - N/A   Clear
3:55 PM 34.7 °F 29.6 °F 24.4 °F 66% 29.99 in 10.0 mi SSW 5.8 mph - N/A   Clear
4:15 PM 34.0 °F 28.8 °F 24.3 °F 68% 29.99 in 10.0 mi SSW 5.8 mph - N/A   Clear
4:35 PM 32.0 °F 26.4 °F 23.7 °F 71% 29.98 in 10.0 mi SSW 5.8 mph - N/A   Clear
5:15 PM 32.0 °F 27.5 °F 23.9 °F 72% 29.98 in 10.0 mi SSW 4.6 mph - N/A   Clear
5:35 PM 31.6 °F - 23.7 °F 73% 29.99 in 10.0 mi Calm Calm - N/A   Clear
5:55 PM 29.3 °F - 22.8 °F 77% 29.99 in 10.0 mi Calm Calm - N/A   Clear
6:15 PM 30.0 °F - 23.0 °F 75% 29.99 in 10.0 mi Calm Calm - N/A   Clear
6:35 PM 28.0 °F - 22.1 °F 78% 30.00 in 10.0 mi Calm Calm - N/A   Clear
6:55 PM 27.7 °F - 22.1 °F 80% 29.99 in 10.0 mi Calm Calm - N/A   Clear
7:15 PM 24.6 °F - 19.0 °F 79% 29.99 in 10.0 mi Calm Calm - N/A   Clear
7:35 PM 24.4 °F - 20.1 °F 84% 29.99 in 10.0 mi Calm Calm - N/A   Clear
7:55 PM 22.5 °F 17.8 °F 18.0 °F 83% 29.99 in 5.0 mi South 3.5 mph - N/A   Clear
8:15 PM 20.3 °F - 15.4 °F 81% 29.99 in 10.0 mi Calm Calm - N/A   Clear
8:35 PM 21.7 °F - 17.4 °F 83% 29.99 in 7.0 mi Calm Calm - N/A   Clear
8:55 PM 23.0 °F - 18.7 °F 84% 29.99 in 10.0 mi Calm Calm - N/A   Clear
9:15 PM 22.6 °F - 18.3 °F 83% 29.99 in 7.0 mi Calm Calm - N/A   Clear
9:35 PM 20.5 °F - 16.2 °F 83% 29.99 in 7.0 mi Calm Calm - N/A   Clear
9:55 PM 21.2 °F - 16.9 °F 83% 29.99 in 7.0 mi Calm Calm - N/A   Clear
10:15 PM 19.8 °F - 14.9 °F 81% 29.98 in 7.0 mi Calm Calm - N/A   Clear
10:55 PM 17.8 °F - 13.1 °F 82% 29.98 in 7.0 mi Calm Calm - N/A   Clear
11:35 PM 14.7 °F - 9.7 °F 80% 29.97 in 0.8 mi Calm Calm - N/A   Haze
11:55 PM 17.6 °F - 12.9 °F 82% 29.97 in 0.8 mi Calm Calm - N/A   Mostly Cloudy